sensor_id;sensor_type;location;lat;lon;timestamp;pressure;altitude;pressure_sealevel;temperature;humidity
36798;BME280;22748;8.426;99.512;2023-04-25T00:00:01;100555.03;;;28.35;63.76
36798;BME280;22748;8.426;99.512;2023-04-25T00:02:35;100566.38;;;28.30;64.29
36798;BME280;22748;8.426;99.512;2023-04-25T00:05:09;100558.94;;;28.32;64.00
36798;BME280;22748;8.426;99.512;2023-04-25T00:07:45;100566.81;;;28.40;64.06
36798;BME280;22748;8.426;99.512;2023-04-25T00:10:16;100574.44;;;28.43;64.04
36798;BME280;22748;8.426;99.512;2023-04-25T00:12:48;100580.22;;;28.40;63.97
36798;BME280;22748;8.426;99.512;2023-04-25T00:15:25;100569.69;;;28.39;64.35
36798;BME280;22748;8.426;99.512;2023-04-25T00:18:01;100577.56;;;28.40;64.67
36798;BME280;22748;8.426;99.512;2023-04-25T00:20:41;100584.16;;;28.31;64.66
36798;BME280;22748;8.426;99.512;2023-04-25T00:23:18;100585.81;;;28.32;64.60
36798;BME280;22748;8.426;99.512;2023-04-25T00:25:50;100590.97;;;28.34;64.72
36798;BME280;22748;8.426;99.512;2023-04-25T00:28:27;100588.50;;;28.32;65.17
36798;BME280;22748;8.426;99.512;2023-04-25T00:30:57;100588.28;;;28.34;65.40
36798;BME280;22748;8.426;99.512;2023-04-25T00:33:36;100594.69;;;28.39;65.35
36798;BME280;22748;8.426;99.512;2023-04-25T00:36:10;100607.50;;;28.37;65.27
36798;BME280;22748;8.426;99.512;2023-04-25T00:38:54;100619.91;;;28.38;65.55
36798;BME280;22748;8.426;99.512;2023-04-25T00:41:26;100619.47;;;28.41;65.58
36798;BME280;22748;8.426;99.512;2023-04-25T00:43:57;100630.25;;;28.48;65.64
36798;BME280;22748;8.426;99.512;2023-04-25T00:46:30;100627.56;;;28.55;65.61
36798;BME280;22748;8.426;99.512;2023-04-25T00:49:05;100628.81;;;28.59;65.37
36798;BME280;22748;8.426;99.512;2023-04-25T00:51:45;100635.44;;;28.63;65.61
36798;BME280;22748;8.426;99.512;2023-04-25T00:54:15;100643.72;;;28.68;65.22
36798;BME280;22748;8.426;99.512;2023-04-25T00:56:52;100653.84;;;28.66;65.61
36798;BME280;22748;8.426;99.512;2023-04-25T00:59:28;100652.78;;;28.67;65.56
36798;BME280;22748;8.426;99.512;2023-04-25T01:02:05;100665.22;;;28.68;65.71
36798;BME280;22748;8.426;99.512;2023-04-25T01:04:36;100660.44;;;28.70;66.01
36798;BME280;22748;8.426;99.512;2023-04-25T01:07:14;100670.78;;;28.73;65.90
36798;BME280;22748;8.426;99.512;2023-04-25T01:09:55;100683.78;;;28.76;66.40
36798;BME280;22748;8.426;99.512;2023-04-25T01:12:34;100672.03;;;28.77;66.23
36798;BME280;22748;8.426;99.512;2023-04-25T01:15:06;100674.91;;;28.69;66.73
36798;BME280;22748;8.426;99.512;2023-04-25T01:17:37;100678.03;;;28.73;66.44
36798;BME280;22748;8.426;99.512;2023-04-25T01:20:14;100682.34;;;28.80;66.45
36798;BME280;22748;8.426;99.512;2023-04-25T01:23:01;100686.28;;;28.84;66.73
36798;BME280;22748;8.426;99.512;2023-04-25T01:25:32;100688.16;;;28.90;66.30
36798;BME280;22748;8.426;99.512;2023-04-25T01:28:04;100694.13;;;28.92;66.90
36798;BME280;22748;8.426;99.512;2023-04-25T01:30:36;100688.34;;;28.96;66.79
36798;BME280;22748;8.426;99.512;2023-04-25T01:33:20;100697.63;;;29.00;66.48
36798;BME280;22748;8.426;99.512;2023-04-25T01:35:51;100695.56;;;29.02;66.49
36798;BME280;22748;8.426;99.512;2023-04-25T01:38:36;100696.81;;;29.06;66.18
36798;BME280;22748;8.426;99.512;2023-04-25T01:41:08;100707.38;;;29.14;66.42
36798;BME280;22748;8.426;99.512;2023-04-25T01:43:39;100695.38;;;29.23;66.37
36798;BME280;22748;8.426;99.512;2023-04-25T01:46:16;100704.25;;;29.30;66.00
36798;BME280;22748;8.426;99.512;2023-04-25T01:48:45;100708.19;;;29.28;65.61
36798;BME280;22748;8.426;99.512;2023-04-25T01:51:16;100706.53;;;29.33;65.65
36798;BME280;22748;8.426;99.512;2023-04-25T01:53:54;100715.84;;;29.38;65.86
36798;BME280;22748;8.426;99.512;2023-04-25T01:56:25;100721.81;;;29.40;65.64
36798;BME280;22748;8.426;99.512;2023-04-25T01:58:56;100711.03;;;29.40;65.79
36798;BME280;22748;8.426;99.512;2023-04-25T02:01:33;100712.72;;;29.41;65.77
36798;BME280;22748;8.426;99.512;2023-04-25T02:04:08;100712.09;;;29.39;66.03
36798;BME280;22748;8.426;99.512;2023-04-25T02:06:38;100714.34;;;29.42;66.00
36798;BME280;22748;8.426;99.512;2023-04-25T02:09:20;100716.84;;;29.43;66.03
36798;BME280;22748;8.426;99.512;2023-04-25T02:11:51;100710.44;;;29.44;66.08
36798;BME280;22748;8.426;99.512;2023-04-25T02:14:21;100709.19;;;29.47;66.00
36798;BME280;22748;8.426;99.512;2023-04-25T02:16:51;100720.94;;;29.52;65.89
36798;BME280;22748;8.426;99.512;2023-04-25T02:19:23;100718.50;;;29.51;65.93
36798;BME280;22748;8.426;99.512;2023-04-25T02:21:53;100719.72;;;29.48;66.24
36798;BME280;22748;8.426;99.512;2023-04-25T02:24:51;100730.69;;;29.53;66.10
36798;BME280;22748;8.426;99.512;2023-04-25T02:27:22;100724.25;;;29.61;66.51
36798;BME280;22748;8.426;99.512;2023-04-25T02:29:52;100729.22;;;29.64;66.70
36798;BME280;22748;8.426;99.512;2023-04-25T02:32:23;100719.69;;;29.68;66.76
36798;BME280;22748;8.426;99.512;2023-04-25T02:34:55;100719.28;;;29.71;66.30
36798;BME280;22748;8.426;99.512;2023-04-25T02:37:31;100722.59;;;29.73;66.33
36798;BME280;22748;8.426;99.512;2023-04-25T02:40:12;100707.66;;;29.78;66.44
36798;BME280;22748;8.426;99.512;2023-04-25T02:42:43;100715.72;;;29.84;66.08
36798;BME280;22748;8.426;99.512;2023-04-25T02:45:13;100715.28;;;29.87;66.15
36798;BME280;22748;8.426;99.512;2023-04-25T02:47:45;100711.34;;;29.90;66.18
36798;BME280;22748;8.426;99.512;2023-04-25T02:50:16;100719.59;;;29.95;66.38
36798;BME280;22748;8.426;99.512;2023-04-25T02:52:46;100716.09;;;29.94;66.02
36798;BME280;22748;8.426;99.512;2023-04-25T02:55:22;100720.00;;;29.99;66.25
36798;BME280;22748;8.426;99.512;2023-04-25T02:57:53;100724.13;;;30.01;65.84
36798;BME280;22748;8.426;99.512;2023-04-25T03:00:25;100718.75;;;30.01;65.96
36798;BME280;22748;8.426;99.512;2023-04-25T03:02:56;100713.75;;;30.05;65.67
36798;BME280;22748;8.426;99.512;2023-04-25T03:05:27;100712.28;;;30.09;65.78
36798;BME280;22748;8.426;99.512;2023-04-25T03:07:59;100707.91;;;30.14;65.28
36798;BME280;22748;8.426;99.512;2023-04-25T03:10:29;100711.22;;;30.17;65.46
36798;BME280;22748;8.426;99.512;2023-04-25T03:13:14;100711.16;;;30.23;65.30
36798;BME280;22748;8.426;99.512;2023-04-25T03:15:44;100699.56;;;30.29;65.35
36798;BME280;22748;8.426;99.512;2023-04-25T03:18:20;100701.00;;;30.32;65.01
36798;BME280;22748;8.426;99.512;2023-04-25T03:20:51;100694.56;;;30.33;65.01
36798;BME280;22748;8.426;99.512;2023-04-25T03:23:28;100687.53;;;30.32;65.08
36798;BME280;22748;8.426;99.512;2023-04-25T03:26:05;100687.06;;;30.35;64.93
36798;BME280;22748;8.426;99.512;2023-04-25T03:28:42;100678.94;;;30.42;64.65
36798;BME280;22748;8.426;99.512;2023-04-25T03:31:12;100684.94;;;30.44;64.30
36798;BME280;22748;8.426;99.512;2023-04-25T03:33:42;100676.84;;;30.44;64.21
36798;BME280;22748;8.426;99.512;2023-04-25T03:36:14;100675.13;;;30.56;63.90
36798;BME280;22748;8.426;99.512;2023-04-25T03:38:50;100672.53;;;30.68;63.42
36798;BME280;22748;8.426;99.512;2023-04-25T03:41:23;100675.22;;;30.68;63.90
36798;BME280;22748;8.426;99.512;2023-04-25T03:43:56;100671.50;;;30.69;63.43
36798;BME280;22748;8.426;99.512;2023-04-25T03:46:32;100667.69;;;30.76;62.65
36798;BME280;22748;8.426;99.512;2023-04-25T03:49:03;100665.38;;;30.80;62.35
36798;BME280;22748;8.426;99.512;2023-04-25T03:51:40;100668.22;;;30.85;62.29
36798;BME280;22748;8.426;99.512;2023-04-25T03:54:10;100656.44;;;30.86;61.81
36798;BME280;22748;8.426;99.512;2023-04-25T03:56:48;100663.06;;;30.84;62.30
36798;BME280;22748;8.426;99.512;2023-04-25T03:59:19;100666.78;;;30.89;62.21
36798;BME280;22748;8.426;99.512;2023-04-25T04:01:51;100659.59;;;31.02;62.05
36798;BME280;22748;8.426;99.512;2023-04-25T04:04:22;100664.13;;;31.08;62.37
36798;BME280;22748;8.426;99.512;2023-04-25T04:06:53;100664.88;;;31.15;61.62
36798;BME280;22748;8.426;99.512;2023-04-25T04:09:23;100657.97;;;31.19;61.53
36798;BME280;22748;8.426;99.512;2023-04-25T04:11:54;100652.28;;;31.27;60.33
36798;BME280;22748;8.426;99.512;2023-04-25T04:14:25;100659.25;;;31.35;59.25
36798;BME280;22748;8.426;99.512;2023-04-25T04:16:57;100648.84;;;31.39;58.96
36798;BME280;22748;8.426;99.512;2023-04-25T04:19:26;100639.66;;;31.40;58.54
36798;BME280;22748;8.426;99.512;2023-04-25T04:21:56;100639.06;;;31.37;58.76
36798;BME280;22748;8.426;99.512;2023-04-25T04:24:27;100636.38;;;31.37;58.01
36798;BME280;22748;8.426;99.512;2023-04-25T04:26:58;100633.03;;;31.42;58.98
36798;BME280;22748;8.426;99.512;2023-04-25T04:29:29;100629.81;;;31.52;58.31
36798;BME280;22748;8.426;99.512;2023-04-25T04:32:04;100624.91;;;31.61;58.31
36798;BME280;22748;8.426;99.512;2023-04-25T04:34:40;100625.91;;;31.66;58.06
36798;BME280;22748;8.426;99.512;2023-04-25T04:37:20;100625.31;;;31.64;58.28
36798;BME280;22748;8.426;99.512;2023-04-25T04:39:54;100621.53;;;31.65;58.16
36798;BME280;22748;8.426;99.512;2023-04-25T04:42:27;100616.84;;;31.72;57.94
36798;BME280;22748;8.426;99.512;2023-04-25T04:44:58;100617.63;;;31.80;58.03
36798;BME280;22748;8.426;99.512;2023-04-25T04:47:28;100623.72;;;31.87;57.58
36798;BME280;22748;8.426;99.512;2023-04-25T04:49:59;100612.03;;;31.93;57.70
36798;BME280;22748;8.426;99.512;2023-04-25T04:52:33;100606.97;;;31.96;57.40
36798;BME280;22748;8.426;99.512;2023-04-25T04:55:06;100611.34;;;31.97;57.91
36798;BME280;22748;8.426;99.512;2023-04-25T04:57:38;100607.97;;;32.02;57.56
36798;BME280;22748;8.426;99.512;2023-04-25T05:00:12;100601.03;;;32.06;57.53
36798;BME280;22748;8.426;99.512;2023-04-25T05:02:44;100599.53;;;32.10;57.49
36798;BME280;22748;8.426;99.512;2023-04-25T05:05:16;100597.41;;;32.12;57.45
36798;BME280;22748;8.426;99.512;2023-04-25T05:07:46;100586.13;;;32.15;57.26
36798;BME280;22748;8.426;99.512;2023-04-25T05:10:18;100575.91;;;32.17;56.98
36798;BME280;22748;8.426;99.512;2023-04-25T05:12:52;100575.44;;;32.21;57.17
36798;BME280;22748;8.426;99.512;2023-04-25T05:15:24;100567.94;;;32.23;57.41
36798;BME280;22748;8.426;99.512;2023-04-25T05:17:57;100561.38;;;32.18;56.49
36798;BME280;22748;8.426;99.512;2023-04-25T05:20:29;100563.72;;;32.27;55.69
36798;BME280;22748;8.426;99.512;2023-04-25T05:23:01;100558.66;;;32.30;55.99
36798;BME280;22748;8.426;99.512;2023-04-25T05:25:32;100558.78;;;32.35;55.28
36798;BME280;22748;8.426;99.512;2023-04-25T05:28:04;100547.25;;;32.40;55.78
36798;BME280;22748;8.426;99.512;2023-04-25T05:30:36;100548.44;;;32.44;55.25
36798;BME280;22748;8.426;99.512;2023-04-25T05:33:08;100543.75;;;32.51;54.53
36798;BME280;22748;8.426;99.512;2023-04-25T05:35:40;100542.50;;;32.54;54.41
36798;BME280;22748;8.426;99.512;2023-04-25T05:38:14;100537.53;;;32.39;54.42
36798;BME280;22748;8.426;99.512;2023-04-25T05:40:45;100536.69;;;32.50;54.10
36798;BME280;22748;8.426;99.512;2023-04-25T05:43:18;100531.19;;;32.57;54.30
36798;BME280;22748;8.426;99.512;2023-04-25T05:45:49;100520.38;;;32.69;54.20
36798;BME280;22748;8.426;99.512;2023-04-25T05:48:19;100525.88;;;32.74;54.35
36798;BME280;22748;8.426;99.512;2023-04-25T05:50:49;100516.91;;;32.85;54.21
36798;BME280;22748;8.426;99.512;2023-04-25T05:53:24;100509.97;;;32.89;54.00
36798;BME280;22748;8.426;99.512;2023-04-25T05:55:54;100503.03;;;32.93;54.18
36798;BME280;22748;8.426;99.512;2023-04-25T05:58:26;100500.09;;;32.95;54.03
36798;BME280;22748;8.426;99.512;2023-04-25T06:00:56;100489.28;;;32.95;53.79
36798;BME280;22748;8.426;99.512;2023-04-25T06:03:27;100483.38;;;32.98;54.02
36798;BME280;22748;8.426;99.512;2023-04-25T06:05:58;100479.25;;;32.95;53.60
36798;BME280;22748;8.426;99.512;2023-04-25T06:11:04;100473.03;;;32.95;54.14
36798;BME280;22748;8.426;99.512;2023-04-25T06:13:38;100473.34;;;32.98;52.93
36798;BME280;22748;8.426;99.512;2023-04-25T06:16:11;100468.75;;;32.99;53.32
36798;BME280;22748;8.426;99.512;2023-04-25T06:18:43;100461.56;;;33.05;53.42
36798;BME280;22748;8.426;99.512;2023-04-25T06:21:18;100441.81;;;33.04;53.33
36798;BME280;22748;8.426;99.512;2023-04-25T06:23:51;100446.44;;;33.04;53.72
36798;BME280;22748;8.426;99.512;2023-04-25T06:26:21;100440.63;;;33.12;53.66
36798;BME280;22748;8.426;99.512;2023-04-25T06:28:53;100431.91;;;33.22;53.33
36798;BME280;22748;8.426;99.512;2023-04-25T06:31:26;100431.09;;;33.21;53.05
36798;BME280;22748;8.426;99.512;2023-04-25T06:34:00;100424.50;;;33.17;52.85
36798;BME280;22748;8.426;99.512;2023-04-25T06:36:31;100424.25;;;33.18;52.44
36798;BME280;22748;8.426;99.512;2023-04-25T06:39:03;100413.03;;;33.27;52.28
36798;BME280;22748;8.426;99.512;2023-04-25T06:41:34;100413.13;;;33.32;52.35
36798;BME280;22748;8.426;99.512;2023-04-25T06:44:06;100399.91;;;33.35;52.78
36798;BME280;22748;8.426;99.512;2023-04-25T06:46:38;100396.41;;;33.35;52.66
36798;BME280;22748;8.426;99.512;2023-04-25T06:49:08;100388.03;;;33.36;52.30
36798;BME280;22748;8.426;99.512;2023-04-25T06:51:38;100391.97;;;33.46;51.59
36798;BME280;22748;8.426;99.512;2023-04-25T06:54:11;100377.94;;;33.49;52.05
36798;BME280;22748;8.426;99.512;2023-04-25T06:56:46;100379.66;;;33.55;51.67
36798;BME280;22748;8.426;99.512;2023-04-25T06:59:19;100373.34;;;33.66;51.25
36798;BME280;22748;8.426;99.512;2023-04-25T07:01:53;100368.84;;;33.72;50.99
36798;BME280;22748;8.426;99.512;2023-04-25T07:04:23;100371.03;;;33.75;51.31
36798;BME280;22748;8.426;99.512;2023-04-25T07:06:54;100362.09;;;33.74;51.85
36798;BME280;22748;8.426;99.512;2023-04-25T07:09:24;100355.31;;;33.72;51.71
36798;BME280;22748;8.426;99.512;2023-04-25T07:11:54;100352.09;;;33.75;51.32
36798;BME280;22748;8.426;99.512;2023-04-25T07:14:27;100350.75;;;33.77;51.49
36798;BME280;22748;8.426;99.512;2023-04-25T07:16:57;100357.31;;;33.81;50.58
36798;BME280;22748;8.426;99.512;2023-04-25T07:19:30;100349.28;;;33.87;50.46
36798;BME280;22748;8.426;99.512;2023-04-25T07:22:02;100337.47;;;33.93;50.37
36798;BME280;22748;8.426;99.512;2023-04-25T07:24:35;100350.91;;;33.88;50.26
36798;BME280;22748;8.426;99.512;2023-04-25T07:27:11;100339.78;;;33.84;50.63
36798;BME280;22748;8.426;99.512;2023-04-25T07:29:44;100343.78;;;33.81;50.87
36798;BME280;22748;8.426;99.512;2023-04-25T07:32:17;100343.78;;;33.81;51.03
36798;BME280;22748;8.426;99.512;2023-04-25T07:34:49;100341.59;;;33.78;50.82
36798;BME280;22748;8.426;99.512;2023-04-25T07:37:19;100337.97;;;33.73;50.51
36798;BME280;22748;8.426;99.512;2023-04-25T07:39:53;100331.25;;;33.75;50.69
36798;BME280;22748;8.426;99.512;2023-04-25T07:42:24;100316.63;;;33.76;50.48
36798;BME280;22748;8.426;99.512;2023-04-25T07:44:57;100308.50;;;33.76;50.56
36798;BME280;22748;8.426;99.512;2023-04-25T07:47:28;100300.53;;;33.87;50.09
36798;BME280;22748;8.426;99.512;2023-04-25T07:49:58;100304.63;;;33.89;50.17
36798;BME280;22748;8.426;99.512;2023-04-25T07:52:28;100289.81;;;33.97;49.83
36798;BME280;22748;8.426;99.512;2023-04-25T07:54:59;100294.22;;;34.03;49.88
36798;BME280;22748;8.426;99.512;2023-04-25T07:57:30;100284.53;;;34.07;49.56
36798;BME280;22748;8.426;99.512;2023-04-25T08:00:04;100284.53;;;34.07;49.95
36798;BME280;22748;8.426;99.512;2023-04-25T08:02:37;100274.69;;;34.01;49.55
36798;BME280;22748;8.426;99.512;2023-04-25T08:05:08;100262.78;;;34.02;49.59
36798;BME280;22748;8.426;99.512;2023-04-25T08:07:42;100262.28;;;34.05;49.35
36798;BME280;22748;8.426;99.512;2023-04-25T08:10:11;100272.88;;;34.07;49.21
36798;BME280;22748;8.426;99.512;2023-04-25T08:12:42;100271.28;;;34.11;48.99
36798;BME280;22748;8.426;99.512;2023-04-25T08:15:16;100261.63;;;34.15;48.57
36798;BME280;22748;8.426;99.512;2023-04-25T08:17:47;100260.28;;;34.17;49.12
36798;BME280;22748;8.426;99.512;2023-04-25T08:20:18;100264.13;;;34.21;49.05
36798;BME280;22748;8.426;99.512;2023-04-25T08:22:48;100264.63;;;34.18;49.11
36798;BME280;22748;8.426;99.512;2023-04-25T08:25:18;100261.66;;;34.20;49.00
36798;BME280;22748;8.426;99.512;2023-04-25T08:27:49;100263.28;;;34.21;49.31
36798;BME280;22748;8.426;99.512;2023-04-25T08:30:22;100256.19;;;34.15;49.26
36798;BME280;22748;8.426;99.512;2023-04-25T08:32:52;100255.13;;;34.16;49.71
36798;BME280;22748;8.426;99.512;2023-04-25T08:35:23;100245.19;;;34.27;49.36
36798;BME280;22748;8.426;99.512;2023-04-25T08:37:53;100241.72;;;34.31;49.37
36798;BME280;22748;8.426;99.512;2023-04-25T08:40:26;100241.22;;;34.34;49.23
36798;BME280;22748;8.426;99.512;2023-04-25T08:42:58;100235.28;;;34.37;49.02
36798;BME280;22748;8.426;99.512;2023-04-25T08:45:37;100233.94;;;34.40;48.61
36798;BME280;22748;8.426;99.512;2023-04-25T08:48:12;100224.78;;;34.46;48.44
36798;BME280;22748;8.426;99.512;2023-04-25T08:50:45;100229.41;;;34.46;48.43
36798;BME280;22748;8.426;99.512;2023-04-25T08:53:22;100218.25;;;34.42;48.18
36798;BME280;22748;8.426;99.512;2023-04-25T08:55:55;100222.53;;;34.38;48.18
36798;BME280;22748;8.426;99.512;2023-04-25T08:58:28;100215.22;;;34.38;48.29
36798;BME280;22748;8.426;99.512;2023-04-25T09:01:00;100214.19;;;34.45;48.10
36798;BME280;22748;8.426;99.512;2023-04-25T09:03:32;100211.13;;;34.36;48.16
36798;BME280;22748;8.426;99.512;2023-04-25T09:06:05;100209.31;;;34.41;48.28
36798;BME280;22748;8.426;99.512;2023-04-25T09:08:38;100211.25;;;34.46;48.40
36798;BME280;22748;8.426;99.512;2023-04-25T09:11:08;100206.84;;;34.40;47.59
36798;BME280;22748;8.426;99.512;2023-04-25T09:13:38;100204.09;;;34.35;48.07
36798;BME280;22748;8.426;99.512;2023-04-25T09:16:12;100202.50;;;34.39;48.04
36798;BME280;22748;8.426;99.512;2023-04-25T09:18:45;100204.69;;;34.42;48.55
36798;BME280;22748;8.426;99.512;2023-04-25T09:21:18;100204.69;;;34.42;47.85
36798;BME280;22748;8.426;99.512;2023-04-25T09:23:51;100192.66;;;34.28;47.90
36798;BME280;22748;8.426;99.512;2023-04-25T09:26:23;100189.97;;;34.33;47.92
36798;BME280;22748;8.426;99.512;2023-04-25T09:29:06;100180.75;;;34.34;47.83
36798;BME280;22748;8.426;99.512;2023-04-25T09:31:39;100195.41;;;34.33;48.47
36798;BME280;22748;8.426;99.512;2023-04-25T09:34:10;100193.25;;;34.35;49.01
36798;BME280;22748;8.426;99.512;2023-04-25T09:36:43;100193.75;;;34.32;49.04
36798;BME280;22748;8.426;99.512;2023-04-25T09:39:13;100186.66;;;34.26;48.90
36798;BME280;22748;8.426;99.512;2023-04-25T09:41:47;100186.69;;;34.31;49.01
36798;BME280;22748;8.426;99.512;2023-04-25T09:44:25;100186.13;;;34.29;49.07
36798;BME280;22748;8.426;99.512;2023-04-25T09:46:57;100191.88;;;34.32;49.23
36798;BME280;22748;8.426;99.512;2023-04-25T09:49:29;100190.47;;;34.30;49.36
36798;BME280;22748;8.426;99.512;2023-04-25T09:52:00;100190.75;;;34.28;49.08
36798;BME280;22748;8.426;99.512;2023-04-25T09:54:31;100187.22;;;34.28;49.44
36798;BME280;22748;8.426;99.512;2023-04-25T09:57:10;100189.88;;;34.22;49.56
36798;BME280;22748;8.426;99.512;2023-04-25T09:59:44;100183.94;;;34.26;49.85
36798;BME280;22748;8.426;99.512;2023-04-25T10:02:17;100185.03;;;34.30;49.64
36798;BME280;22748;8.426;99.512;2023-04-25T10:04:49;100191.59;;;34.34;49.54
36798;BME280;22748;8.426;99.512;2023-04-25T10:07:24;100196.16;;;34.28;49.76
36798;BME280;22748;8.426;99.512;2023-04-25T10:10:00;100196.38;;;34.21;50.08
36798;BME280;22748;8.426;99.512;2023-04-25T10:12:33;100208.28;;;34.20;50.24
36798;BME280;22748;8.426;99.512;2023-04-25T10:15:06;100209.94;;;34.21;50.26
36798;BME280;22748;8.426;99.512;2023-04-25T10:17:41;100201.72;;;34.16;50.58
36798;BME280;22748;8.426;99.512;2023-04-25T10:20:12;100200.09;;;34.15;50.44
36798;BME280;22748;8.426;99.512;2023-04-25T10:22:44;100206.56;;;34.14;50.35
36798;BME280;22748;8.426;99.512;2023-04-25T10:25:16;100204.56;;;34.05;50.54
36798;BME280;22748;8.426;99.512;2023-04-25T10:27:47;100193.97;;;34.03;50.37
36798;BME280;22748;8.426;99.512;2023-04-25T10:30:19;100194.84;;;34.09;50.71
36798;BME280;22748;8.426;99.512;2023-04-25T10:32:55;100194.28;;;34.07;50.53
36798;BME280;22748;8.426;99.512;2023-04-25T10:35:27;100193.56;;;34.11;50.34
36798;BME280;22748;8.426;99.512;2023-04-25T10:38:00;100190.59;;;34.13;50.32
36798;BME280;22748;8.426;99.512;2023-04-25T10:40:33;100194.16;;;34.18;50.11
36798;BME280;22748;8.426;99.512;2023-04-25T10:43:35;100205.00;;;34.18;50.27
36798;BME280;22748;8.426;99.512;2023-04-25T10:46:22;100197.75;;;34.24;50.32
36798;BME280;22748;8.426;99.512;2023-04-25T10:48:55;100201.09;;;34.09;50.14
36798;BME280;22748;8.426;99.512;2023-04-25T10:51:27;100207.84;;;34.07;50.31
36798;BME280;22748;8.426;99.512;2023-04-25T10:54:01;100208.66;;;34.07;50.49
36798;BME280;22748;8.426;99.512;2023-04-25T10:56:33;100205.91;;;34.02;50.32
36798;BME280;22748;8.426;99.512;2023-04-25T10:59:08;100209.66;;;34.01;50.56
36798;BME280;22748;8.426;99.512;2023-04-25T11:01:43;100214.59;;;34.04;50.51
36798;BME280;22748;8.426;99.512;2023-04-25T11:04:32;100223.84;;;34.08;50.67
36798;BME280;22748;8.426;99.512;2023-04-25T11:07:13;100233.44;;;34.16;50.93
36798;BME280;22748;8.426;99.512;2023-04-25T11:09:48;100235.94;;;34.22;51.01
36798;BME280;22748;8.426;99.512;2023-04-25T11:12:20;100234.88;;;34.24;51.27
36798;BME280;22748;8.426;99.512;2023-04-25T11:14:51;100231.59;;;34.21;51.27
36798;BME280;22748;8.426;99.512;2023-04-25T11:17:29;100231.31;;;34.23;51.34
36798;BME280;22748;8.426;99.512;2023-04-25T11:20:01;100229.94;;;34.20;51.45
36798;BME280;22748;8.426;99.512;2023-04-25T11:22:38;100223.53;;;34.05;51.65
36798;BME280;22748;8.426;99.512;2023-04-25T11:25:11;100234.13;;;34.06;51.47
36798;BME280;22748;8.426;99.512;2023-04-25T11:27:52;100228.06;;;33.99;50.98
36798;BME280;22748;8.426;99.512;2023-04-25T11:30:23;100235.63;;;33.97;50.74
36798;BME280;22748;8.426;99.512;2023-04-25T11:32:55;100233.00;;;34.02;51.25
36798;BME280;22748;8.426;99.512;2023-04-25T11:35:33;100241.69;;;34.04;50.67
36798;BME280;22748;8.426;99.512;2023-04-25T11:38:03;100248.91;;;33.98;51.30
36798;BME280;22748;8.426;99.512;2023-04-25T11:40:35;100250.31;;;34.01;51.44
36798;BME280;22748;8.426;99.512;2023-04-25T11:43:07;100249.25;;;34.02;51.59
36798;BME280;22748;8.426;99.512;2023-04-25T11:45:39;100250.88;;;34.03;51.32
36798;BME280;22748;8.426;99.512;2023-04-25T11:48:10;100248.97;;;34.04;51.52
36798;BME280;22748;8.426;99.512;2023-04-25T11:50:45;100250.06;;;34.03;51.81
36798;BME280;22748;8.426;99.512;2023-04-25T11:53:21;100246.53;;;34.02;51.72
36798;BME280;22748;8.426;99.512;2023-04-25T11:55:53;100250.81;;;33.98;51.87
36798;BME280;22748;8.426;99.512;2023-04-25T11:58:24;100260.56;;;33.99;52.14
36798;BME280;22748;8.426;99.512;2023-04-25T12:00:57;100260.56;;;33.99;52.25
36798;BME280;22748;8.426;99.512;2023-04-25T12:03:30;100273.06;;;34.00;52.25
36798;BME280;22748;8.426;99.512;2023-04-25T12:06:05;100276.81;;;33.99;52.06
36798;BME280;22748;8.426;99.512;2023-04-25T12:08:36;100286.03;;;33.98;52.47
36798;BME280;22748;8.426;99.512;2023-04-25T12:11:21;100293.59;;;33.96;52.36
36798;BME280;22748;8.426;99.512;2023-04-25T12:13:53;100300.06;;;33.95;52.83
36798;BME280;22748;8.426;99.512;2023-04-25T12:16:24;100313.63;;;33.95;53.03
36798;BME280;22748;8.426;99.512;2023-04-25T12:18:56;100318.50;;;33.93;53.44
36798;BME280;22748;8.426;99.512;2023-04-25T12:21:31;100321.44;;;33.91;53.35
36798;BME280;22748;8.426;99.512;2023-04-25T12:24:11;100332.53;;;33.90;53.71
36798;BME280;22748;8.426;99.512;2023-04-25T12:27:00;100338.47;;;33.87;53.55
36798;BME280;22748;8.426;99.512;2023-04-25T12:29:34;100342.50;;;33.84;53.68
36798;BME280;22748;8.426;99.512;2023-04-25T12:32:05;100355.69;;;33.80;53.96
36798;BME280;22748;8.426;99.512;2023-04-25T12:34:36;100355.69;;;33.80;54.02
36798;BME280;22748;8.426;99.512;2023-04-25T12:37:09;100351.34;;;33.79;54.00
36798;BME280;22748;8.426;99.512;2023-04-25T12:39:40;100352.41;;;33.78;54.20
36798;BME280;22748;8.426;99.512;2023-04-25T12:42:10;100354.03;;;33.79;53.78
36798;BME280;22748;8.426;99.512;2023-04-25T12:44:40;100357.31;;;33.81;54.23
36798;BME280;22748;8.426;99.512;2023-04-25T12:47:10;100364.63;;;33.81;54.34
36798;BME280;22748;8.426;99.512;2023-04-25T12:49:40;100367.59;;;33.79;54.34
36798;BME280;22748;8.426;99.512;2023-04-25T12:52:13;100374.66;;;33.80;54.34
36798;BME280;22748;8.426;99.512;2023-04-25T12:54:44;100390.91;;;33.80;54.37
36798;BME280;22748;8.426;99.512;2023-04-25T12:57:15;100402.81;;;33.79;54.66
36798;BME280;22748;8.426;99.512;2023-04-25T12:59:47;100402.22;;;33.77;54.94
36798;BME280;22748;8.426;99.512;2023-04-25T13:02:18;100415.22;;;33.75;54.85
36798;BME280;22748;8.426;99.512;2023-04-25T13:04:48;100408.38;;;33.73;55.09
36798;BME280;22748;8.426;99.512;2023-04-25T13:07:20;100417.59;;;33.72;55.12
36798;BME280;22748;8.426;99.512;2023-04-25T13:09:50;100424.63;;;33.73;55.13
36798;BME280;22748;8.426;99.512;2023-04-25T13:12:21;100434.66;;;33.72;55.05
36798;BME280;22748;8.426;99.512;2023-04-25T13:14:52;100439.25;;;33.72;55.14
36798;BME280;22748;8.426;99.512;2023-04-25T13:17:23;100434.09;;;33.70;55.13
36798;BME280;22748;8.426;99.512;2023-04-25T13:19:52;100427.84;;;33.70;55.38
36798;BME280;22748;8.426;99.512;2023-04-25T13:22:24;100421.88;;;33.68;55.06